• Join FlightAware (Why Join?)
  • Login
  • US Flag 
03:00PM EDT


 

Airport Tracker/Info


-or-


 

Live Flight TrackerFlight Track Log ✈ SWA385 ✈ 11-Jul-2013 ✈ KIAD - KMDW

Flight Track Log - Related Links

Times and Time Zones

All times are in EDT time to prevent confusion due to time zone crossing. See the SWA385 flight status page for this flight to view local times or setup timezone preferences in your user account.

Time Position Orientation Groundspeed Altitude Reporting Facility
EDT Latitude Longitude Course Direction KTS MPH feet Rate Location/Type
04:45PM 38.9333 -77.5167 293° West 181 208 1,800  Level Potomac TRACON
04:47PM 38.9036 -77.6856 257° West 288 331 6,100 2,820 Climbing Washington Center
04:48PM 38.8894 -77.7706 258° West 283 326 10,000 3,240 Climbing Washington Center
04:49PM 38.8747 -77.8953 261° West 303 349 12,500 2,580 Climbing Washington Center
04:50PM 38.8972 -78.0161 283° West 331 381 15,400 3,000 Climbing Washington Center
04:51PM 39.3485 -78.6903 293° West  Level Estimated
04:51PM 38.9344 -78.1347 292° West 341 392 18,600  Level Washington Center
04:52PM 38.9628 -78.2667 285° West 360 414 21,100 2,460 Climbing Washington Center
04:53PM 38.9658 -78.4083 272° West 383 441 23,500 2,280 Climbing Washington Center
04:54PM 38.9708 -78.5500 273° West 390 449 25,800 1,980 Climbing Washington Center
04:55PM 38.9736 -78.6942 271° West 407 468 27,600 1,620 Climbing Washington Center
04:56PM 38.9778 -78.8467 272° West 421 484 29,100 1,620 Climbing Washington Center
04:57PM 38.9819 -78.9992 272° West 427 491 30,900 1,920 Climbing Washington Center
04:58PM 38.9858 -79.1514 272° West 427 491 32,900 1,920 Climbing Washington Center
04:59PM 38.9897 -79.3011 272° West 422 486 34,700 1,740 Climbing Washington Center
05:00PM 38.9936 -79.4431 272° West 415 478 36,500 1,620 Climbing Washington Center
05:01PM 38.9972 -79.5847 272° West 405 466 38,000 720 Climbing Washington Center
05:02PM 39.0028 -79.7267 273° West 405 466 38,000  Level Washington Center
05:03PM 39.0022 -79.8656 270° West 405 466 38,000  Level Washington Center
05:04PM 39.0019 -79.9636 270° West 390 449 38,000  Level Indianapolis Center
05:05PM 39.0044 -80.1081 271° West 392 451 38,000  Level Indianapolis Center
05:06PM 39.0058 -80.2481 271° West 392 451 38,000  Level Indianapolis Center
05:07PM 39.0147 -80.3881 275° West 396 456 38,000  Level Indianapolis Center
05:08PM 39.0833 -80.5461 299° West 425 489 38,000  Level Indianapolis Center
05:09PM 39.1389 -80.6783 298° West 422 486 38,000  Level Indianapolis Center
05:10PM 39.1956 -80.8086 299° West 422 486 38,000  Level Indianapolis Center
05:11PM 39.2533 -80.9381 300° West 419 482 38,000  Level Indianapolis Center
05:12PM 39.3106 -81.0703 299° West 422 486 38,000  Level Indianapolis Center
05:13PM 39.3669 -81.2011 299° West 420 483 38,000  Level Indianapolis Center
05:14PM 39.4344 -81.3572 299° West 417 480 38,000  Level Indianapolis Center
05:15PM 39.4906 -81.4894 299° West 419 482 38,000  Level Indianapolis Center
05:17PM 39.5458 -81.6208 299° West 417 480 38,000  Level Indianapolis Center
05:18PM 39.6019 -81.7531 299° West 419 482 38,000  Level Indianapolis Center
05:19PM 39.6583 -81.8836 299° West 417 480 38,000  Level Indianapolis Center
05:20PM 39.7236 -82.0397 299° West 420 483 38,000  Level Indianapolis Center
05:21PM 39.7792 -82.1742 298° West 420 483 38,000  Level Indianapolis Center
05:22PM 39.8356 -82.3092 299° West 420 483 38,000  Level Indianapolis Center
05:23PM 39.8925 -82.4436 299° West 421 484 38,000  Level Indianapolis Center
05:24PM 39.9481 -82.5772 299° West 418 481 38,000  Level Indianapolis Center
05:25PM 40.0028 -82.7106 298° West 416 479 38,000  Level Indianapolis Center
05:26PM 40.0664 -82.8681 298° West 418 481 38,000  Level Indianapolis Center
05:27PM 40.1214 -83.0011 298° West 417 480 38,000  Level Indianapolis Center
05:28PM 40.1758 -83.1347 298° West 416 479 38,000  Level Indianapolis Center
05:29PM 40.2286 -83.2675 298° West 413 475 38,000  Level Indianapolis Center
05:30PM 40.2819 -83.3997 298° West 411 473 38,000  Level Indianapolis Center
05:31PM 40.3442 -83.5556 298° West 413 475 38,000  Level Indianapolis Center
05:32PM 40.3975 -83.6886 298° West 412 474 38,000  Level Indianapolis Center
05:33PM 40.4503 -83.8225 297° West 411 473 38,000  Level Indianapolis Center
05:34PM 40.5042 -83.9572 298° West 413 475 38,000  Level Indianapolis Center
05:35PM 40.5572 -84.0917 297° West 413 475 38,000 -960 Level Indianapolis Center
05:36PM 40.6094 -84.2256 297° West 410 472 36,100 -2,160 Descending Indianapolis Center
05:37PM 40.6608 -84.3586 297° West 407 468 33,600 -2,400 Descending Indianapolis Center
05:38PM 40.7197 -84.5089 297° West 393 452 31,200 -1,800 Descending Indianapolis Center
05:39PM 40.7678 -84.6342 298° West 381 438 30,000 -600 Descending Indianapolis Center
05:40PM 40.7774 -84.6685 298° West  Level FlightAware Approximate
05:40PM 40.8147 -84.7547 297° West 370 426 30,000  Level Indianapolis Center
05:41PM 40.8783 -84.8619 308° West 376 433 29,000 -960 Descending Indianapolis Center
05:42PM 40.9594 -84.9556 319° Northwest 370 426 28,000 -540 Descending Indianapolis Center
05:43PM 41.0333 -85.0425 318° Northwest 360 414 28,000 -540 Level Indianapolis Center
05:44PM 41.1128 -85.1339 319° Northwest 356 410 26,900 -1,020 Descending Chicago Center
05:46PM 41.1792 -85.2331 312° West 362 417 25,900 -1,020 Descending Chicago Center
05:47PM 41.2292 -85.3489 300° West 362 417 24,800 -1,140 Descending Chicago Center
05:48PM 41.2889 -85.4825 301° West 353 406 23,600 -1,080 Descending Chicago Center
05:49PM 41.3361 -85.5928 300° West 344 396 22,600 -900 Descending Chicago Center
05:50PM 41.3847 -85.7033 300° West 343 395 21,800 -1,260 Descending Chicago Center
05:51PM 41.4303 -85.8100 300° West 332 382 20,000 -1,740 Descending Chicago Center
05:52PM 41.4744 -85.9136 300° West 325 374 18,300 -1,620 Descending Chicago Center
05:53PM 41.5172 -86.0147 299° West 316 364 16,700 -1,680 Descending Chicago Center
05:54PM 41.5239 -86.1297 274° West 314 361 14,900 -1,980 Descending Chicago Center
05:55PM 41.5239 -86.2722 270° West 319 367 12,700 -1,860 Descending Chicago Center
05:56PM 41.5228 -86.3894 269° West 316 364 11,100 -840 Descending Chicago Center
05:57PM 41.5225 -86.5022 270° West 306 352 11,000 -540 Descending Chicago Center
05:58PM 41.5203 -86.6117 268° West 298 343 10,000 -480 Descending Chicago Center
05:59PM 41.5219 -86.7294 271° West 278 320 10,100  Climbing Chicago Center
06:00PM 41.5192 -86.8411 268° West 296 341 10,000 -600 Descending Chicago Center
06:01PM 41.5178 -86.9481 269° West 292 336 8,900 -1,260 Descending Chicago Center
06:02PM 41.5164 -87.0528 269° West 284 327 7,400 -1,440 Descending Chicago Center
06:03PM 41.5156 -87.1586 269° West 285 328 6,000 -720 Descending Chicago Center
06:04PM 41.5150 -87.2819 270° West 279 321 6,000 -660 Level Chicago Center
06:05PM 41.5242 -87.3831 277° West 277 319 4,700 -1,020 Descending Chicago Center
06:06PM 41.5322 -87.4831 276° West 274 315 4,000 -360 Descending Chicago Center
06:07PM 41.5392 -87.5811 275° West 271 312 4,000  Level Chicago Center
06:08PM 41.5789 -87.6575 305° West 269 310 4,000  Level Chicago Center
06:09PM 41.6303 -87.7328 312° West 246 283 4,000 -240 Level Chicago Center
06:10PM 41.6697 -87.7858 315° West 224 258 3,500 -780 Descending Chicago Center
06:11PM 41.7081 -87.8236 324° Northwest 199 229 2,400 -900 Descending Chicago Center
06:12PM 41.7447 -87.8056 20° North 164 189 1,700 -660 Descending Chicago Center
06:13PM 41.7717 -87.7717 43° Northeast 144 166 1,100 -600 Descending Chicago Center
06:15PM 41.7833 -87.7500 340° North  Level FlightAware Approximate